sensor_id;sensor_type;location;lat;lon;timestamp;P1;durP1;ratioP1;P2;durP2;ratioP2
8708;SDS011;4391;48.678;9.280;2023-04-24T00:01:01;2.97;;;0.82;;
8708;SDS011;4391;48.678;9.280;2023-04-24T00:03:28;2.58;;;0.63;;
8708;SDS011;4391;48.678;9.280;2023-04-24T00:05:55;2.17;;;0.60;;
8708;SDS011;4391;48.678;9.280;2023-04-24T00:08:24;1.38;;;0.40;;
8708;SDS011;4391;48.678;9.280;2023-04-24T00:10:52;2.90;;;0.60;;
8708;SDS011;4391;48.678;9.280;2023-04-24T00:13:19;2.55;;;0.93;;
8708;SDS011;4391;48.678;9.280;2023-04-24T00:15:45;2.58;;;0.70;;
8708;SDS011;4391;48.678;9.280;2023-04-24T00:18:12;2.20;;;0.60;;
8708;SDS011;4391;48.678;9.280;2023-04-24T00:20:39;2.20;;;0.68;;
8708;SDS011;4391;48.678;9.280;2023-04-24T00:23:06;1.60;;;0.50;;
8708;SDS011;4391;48.678;9.280;2023-04-24T00:25:33;1.27;;;0.35;;
8708;SDS011;4391;48.678;9.280;2023-04-24T00:28:01;2.85;;;0.50;;
8708;SDS011;4391;48.678;9.280;2023-04-24T00:30:27;2.33;;;0.50;;
8708;SDS011;4391;48.678;9.280;2023-04-24T00:32:55;2.08;;;0.50;;
8708;SDS011;4391;48.678;9.280;2023-04-24T00:35:21;2.40;;;0.40;;
8708;SDS011;4391;48.678;9.280;2023-04-24T00:37:48;1.20;;;0.40;;
8708;SDS011;4391;48.678;9.280;2023-04-24T00:40:15;1.88;;;0.68;;
8708;SDS011;4391;48.678;9.280;2023-04-24T00:42:43;2.87;;;0.60;;
8708;SDS011;4391;48.678;9.280;2023-04-24T00:45:11;2.17;;;0.50;;
8708;SDS011;4391;48.678;9.280;2023-04-24T00:47:38;2.58;;;0.40;;
8708;SDS011;4391;48.678;9.280;2023-04-24T00:50:05;2.90;;;0.73;;
8708;SDS011;4391;48.678;9.280;2023-04-24T00:52:33;1.40;;;0.50;;
8708;SDS011;4391;48.678;9.280;2023-04-24T00:55:00;1.13;;;0.30;;
8708;SDS011;4391;48.678;9.280;2023-04-24T00:57:28;1.45;;;0.40;;
8708;SDS011;4391;48.678;9.280;2023-04-24T00:59:55;2.25;;;0.47;;
8708;SDS011;4391;48.678;9.280;2023-04-24T01:02:23;1.55;;;0.50;;
8708;SDS011;4391;48.678;9.280;2023-04-24T01:04:50;1.95;;;0.50;;
8708;SDS011;4391;48.678;9.280;2023-04-24T01:07:18;2.23;;;0.50;;
8708;SDS011;4391;48.678;9.280;2023-04-24T01:09:46;4.10;;;0.60;;
8708;SDS011;4391;48.678;9.280;2023-04-24T01:12:16;3.38;;;0.50;;
8708;SDS011;4391;48.678;9.280;2023-04-24T01:14:43;2.65;;;0.40;;
8708;SDS011;4391;48.678;9.280;2023-04-24T01:17:10;2.13;;;0.45;;
8708;SDS011;4391;48.678;9.280;2023-04-24T01:19:38;1.43;;;0.60;;
8708;SDS011;4391;48.678;9.280;2023-04-24T01:22:11;2.80;;;0.70;;
8708;SDS011;4391;48.678;9.280;2023-04-24T01:24:38;4.18;;;0.40;;
8708;SDS011;4391;48.678;9.280;2023-04-24T01:27:06;1.77;;;0.50;;
8708;SDS011;4391;48.678;9.280;2023-04-24T01:29:33;1.98;;;0.50;;
8708;SDS011;4391;48.678;9.280;2023-04-24T01:32:00;1.43;;;0.47;;
8708;SDS011;4391;48.678;9.280;2023-04-24T01:34:27;2.72;;;0.50;;
8708;SDS011;4391;48.678;9.280;2023-04-24T01:36:54;1.98;;;0.50;;
8708;SDS011;4391;48.678;9.280;2023-04-24T01:39:22;2.63;;;0.95;;
8708;SDS011;4391;48.678;9.280;2023-04-24T01:41:50;1.55;;;0.50;;
8708;SDS011;4391;48.678;9.280;2023-04-24T01:44:17;2.10;;;0.70;;
8708;SDS011;4391;48.678;9.280;2023-04-24T01:46:44;2.90;;;0.70;;
8708;SDS011;4391;48.678;9.280;2023-04-24T01:49:11;1.60;;;0.50;;
8708;SDS011;4391;48.678;9.280;2023-04-24T01:51:38;2.90;;;0.50;;
8708;SDS011;4391;48.678;9.280;2023-04-24T01:54:05;3.13;;;0.52;;
8708;SDS011;4391;48.678;9.280;2023-04-24T01:56:34;1.33;;;0.30;;
8708;SDS011;4391;48.678;9.280;2023-04-24T01:59:02;1.70;;;0.50;;
8708;SDS011;4391;48.678;9.280;2023-04-24T02:01:32;2.70;;;0.40;;
8708;SDS011;4391;48.678;9.280;2023-04-24T02:04:01;1.33;;;0.40;;
8708;SDS011;4391;48.678;9.280;2023-04-24T02:06:28;2.63;;;0.70;;
8708;SDS011;4391;48.678;9.280;2023-04-24T02:08:56;1.40;;;0.50;;
8708;SDS011;4391;48.678;9.280;2023-04-24T02:11:23;1.83;;;0.50;;
8708;SDS011;4391;48.678;9.280;2023-04-24T02:13:51;2.92;;;0.40;;
8708;SDS011;4391;48.678;9.280;2023-04-24T02:16:18;2.08;;;0.60;;
8708;SDS011;4391;48.678;9.280;2023-04-24T02:18:45;3.97;;;0.60;;
8708;SDS011;4391;48.678;9.280;2023-04-24T02:21:12;2.30;;;0.50;;
8708;SDS011;4391;48.678;9.280;2023-04-24T02:23:39;1.27;;;0.50;;
8708;SDS011;4391;48.678;9.280;2023-04-24T02:26:05;5.68;;;1.23;;
8708;SDS011;4391;48.678;9.280;2023-04-24T02:28:32;1.85;;;0.40;;
8708;SDS011;4391;48.678;9.280;2023-04-24T02:31:00;1.27;;;0.60;;
8708;SDS011;4391;48.678;9.280;2023-04-24T02:33:27;1.83;;;0.60;;
8708;SDS011;4391;48.678;9.280;2023-04-24T02:35:54;2.20;;;0.40;;
8708;SDS011;4391;48.678;9.280;2023-04-24T02:38:21;2.00;;;0.50;;
8708;SDS011;4391;48.678;9.280;2023-04-24T02:40:48;1.63;;;0.50;;
8708;SDS011;4391;48.678;9.280;2023-04-24T02:43:15;2.38;;;0.82;;
8708;SDS011;4391;48.678;9.280;2023-04-24T02:45:41;2.80;;;0.57;;
8708;SDS011;4391;48.678;9.280;2023-04-24T02:48:10;2.00;;;0.60;;
8708;SDS011;4391;48.678;9.280;2023-04-24T02:50:36;3.60;;;0.50;;
8708;SDS011;4391;48.678;9.280;2023-04-24T02:53:03;1.90;;;0.50;;
8708;SDS011;4391;48.678;9.280;2023-04-24T02:55:30;1.58;;;0.40;;
8708;SDS011;4391;48.678;9.280;2023-04-24T02:57:57;1.87;;;0.50;;
8708;SDS011;4391;48.678;9.280;2023-04-24T03:00:24;1.38;;;0.47;;
8708;SDS011;4391;48.678;9.280;2023-04-24T03:02:50;2.53;;;0.40;;
8708;SDS011;4391;48.678;9.280;2023-04-24T03:05:19;2.50;;;0.40;;
8708;SDS011;4391;48.678;9.280;2023-04-24T03:07:46;2.92;;;0.50;;
8708;SDS011;4391;48.678;9.280;2023-04-24T03:10:13;1.77;;;0.73;;
8708;SDS011;4391;48.678;9.280;2023-04-24T03:12:40;1.33;;;0.50;;
8708;SDS011;4391;48.678;9.280;2023-04-24T03:15:07;1.80;;;0.60;;
8708;SDS011;4391;48.678;9.280;2023-04-24T03:17:34;3.30;;;0.80;;
8708;SDS011;4391;48.678;9.280;2023-04-24T03:20:02;5.00;;;0.80;;
8708;SDS011;4391;48.678;9.280;2023-04-24T03:22:31;2.50;;;0.60;;
8708;SDS011;4391;48.678;9.280;2023-04-24T03:24:58;1.70;;;0.50;;
8708;SDS011;4391;48.678;9.280;2023-04-24T03:27:25;3.00;;;0.63;;
8708;SDS011;4391;48.678;9.280;2023-04-24T03:29:52;1.83;;;0.60;;
8708;SDS011;4391;48.678;9.280;2023-04-24T03:32:20;1.50;;;0.50;;
8708;SDS011;4391;48.678;9.280;2023-04-24T03:34:48;3.50;;;0.67;;
8708;SDS011;4391;48.678;9.280;2023-04-24T03:37:15;2.53;;;0.73;;
8708;SDS011;4391;48.678;9.280;2023-04-24T03:39:43;1.42;;;0.50;;
8708;SDS011;4391;48.678;9.280;2023-04-24T03:42:10;2.80;;;0.70;;
8708;SDS011;4391;48.678;9.280;2023-04-24T03:44:36;3.42;;;0.55;;
8708;SDS011;4391;48.678;9.280;2023-04-24T03:47:03;3.10;;;0.60;;
8708;SDS011;4391;48.678;9.280;2023-04-24T03:49:30;6.55;;;0.80;;
8708;SDS011;4391;48.678;9.280;2023-04-24T03:51:57;1.65;;;0.60;;
8708;SDS011;4391;48.678;9.280;2023-04-24T03:54:23;1.67;;;0.43;;
8708;SDS011;4391;48.678;9.280;2023-04-24T03:56:52;3.88;;;0.55;;
8708;SDS011;4391;48.678;9.280;2023-04-24T03:59:18;1.73;;;0.70;;
8708;SDS011;4391;48.678;9.280;2023-04-24T04:01:46;2.80;;;0.75;;
8708;SDS011;4391;48.678;9.280;2023-04-24T04:04:12;2.90;;;1.02;;
8708;SDS011;4391;48.678;9.280;2023-04-24T04:06:39;2.70;;;0.50;;
8708;SDS011;4391;48.678;9.280;2023-04-24T04:09:07;2.08;;;0.60;;
8708;SDS011;4391;48.678;9.280;2023-04-24T04:11:34;3.63;;;0.70;;
8708;SDS011;4391;48.678;9.280;2023-04-24T04:14:02;2.42;;;0.52;;
8708;SDS011;4391;48.678;9.280;2023-04-24T04:16:30;1.85;;;0.60;;
8708;SDS011;4391;48.678;9.280;2023-04-24T04:18:57;2.75;;;0.60;;
8708;SDS011;4391;48.678;9.280;2023-04-24T04:21:24;3.60;;;0.43;;
8708;SDS011;4391;48.678;9.280;2023-04-24T04:23:51;2.80;;;0.60;;
8708;SDS011;4391;48.678;9.280;2023-04-24T04:26:18;2.38;;;0.70;;
8708;SDS011;4391;48.678;9.280;2023-04-24T04:28:46;3.70;;;0.70;;
8708;SDS011;4391;48.678;9.280;2023-04-24T04:31:15;1.80;;;0.40;;
8708;SDS011;4391;48.678;9.280;2023-04-24T04:33:42;2.88;;;0.70;;
8708;SDS011;4391;48.678;9.280;2023-04-24T04:36:08;2.40;;;0.60;;
8708;SDS011;4391;48.678;9.280;2023-04-24T04:38:35;2.35;;;0.50;;
8708;SDS011;4391;48.678;9.280;2023-04-24T04:41:02;2.15;;;0.60;;
8708;SDS011;4391;48.678;9.280;2023-04-24T04:43:29;1.30;;;0.43;;
8708;SDS011;4391;48.678;9.280;2023-04-24T04:45:59;2.05;;;0.68;;
8708;SDS011;4391;48.678;9.280;2023-04-24T04:48:29;3.37;;;0.60;;
8708;SDS011;4391;48.678;9.280;2023-04-24T04:50:56;1.45;;;0.50;;
8708;SDS011;4391;48.678;9.280;2023-04-24T04:53:23;2.28;;;0.60;;
8708;SDS011;4391;48.678;9.280;2023-04-24T04:55:50;7.68;;;1.10;;
8708;SDS011;4391;48.678;9.280;2023-04-24T04:58:18;3.08;;;1.00;;
8708;SDS011;4391;48.678;9.280;2023-04-24T05:00:44;2.50;;;0.80;;
8708;SDS011;4391;48.678;9.280;2023-04-24T05:03:11;2.08;;;0.73;;
8708;SDS011;4391;48.678;9.280;2023-04-24T05:05:39;4.10;;;0.90;;
8708;SDS011;4391;48.678;9.280;2023-04-24T05:08:06;3.97;;;1.00;;
8708;SDS011;4391;48.678;9.280;2023-04-24T05:10:33;3.22;;;1.10;;
8708;SDS011;4391;48.678;9.280;2023-04-24T05:13:01;2.80;;;1.13;;
8708;SDS011;4391;48.678;9.280;2023-04-24T05:15:31;3.65;;;1.10;;
8708;SDS011;4391;48.678;9.280;2023-04-24T05:17:58;3.92;;;1.20;;
8708;SDS011;4391;48.678;9.280;2023-04-24T05:20:25;3.25;;;1.20;;
8708;SDS011;4391;48.678;9.280;2023-04-24T05:22:53;3.95;;;1.30;;
8708;SDS011;4391;48.678;9.280;2023-04-24T05:25:20;3.47;;;1.30;;
8708;SDS011;4391;48.678;9.280;2023-04-24T05:27:47;4.93;;;1.52;;
8708;SDS011;4391;48.678;9.280;2023-04-24T05:30:14;2.78;;;0.98;;
8708;SDS011;4391;48.678;9.280;2023-04-24T05:32:41;6.32;;;1.40;;
8708;SDS011;4391;48.678;9.280;2023-04-24T05:35:08;3.40;;;1.20;;
8708;SDS011;4391;48.678;9.280;2023-04-24T05:37:35;3.37;;;1.10;;
8708;SDS011;4391;48.678;9.280;2023-04-24T05:40:03;4.32;;;1.70;;
8708;SDS011;4391;48.678;9.280;2023-04-24T05:42:31;4.93;;;1.13;;
8708;SDS011;4391;48.678;9.280;2023-04-24T05:44:57;3.25;;;1.33;;
8708;SDS011;4391;48.678;9.280;2023-04-24T05:47:24;3.75;;;1.27;;
8708;SDS011;4391;48.678;9.280;2023-04-24T05:49:51;3.27;;;1.30;;
8708;SDS011;4391;48.678;9.280;2023-04-24T05:52:19;5.82;;;1.13;;
8708;SDS011;4391;48.678;9.280;2023-04-24T05:54:45;2.60;;;1.10;;
8708;SDS011;4391;48.678;9.280;2023-04-24T05:57:14;3.45;;;1.20;;
8708;SDS011;4391;48.678;9.280;2023-04-24T05:59:40;3.90;;;1.50;;
8708;SDS011;4391;48.678;9.280;2023-04-24T06:02:07;2.93;;;1.20;;
8708;SDS011;4391;48.678;9.280;2023-04-24T06:04:34;3.33;;;1.00;;
8708;SDS011;4391;48.678;9.280;2023-04-24T06:07:01;3.25;;;1.20;;
8708;SDS011;4391;48.678;9.280;2023-04-24T06:09:28;5.38;;;1.50;;
8708;SDS011;4391;48.678;9.280;2023-04-24T06:11:55;3.00;;;1.10;;
8708;SDS011;4391;48.678;9.280;2023-04-24T06:14:23;4.20;;;1.43;;
8708;SDS011;4391;48.678;9.280;2023-04-24T06:16:50;3.30;;;1.38;;
8708;SDS011;4391;48.678;9.280;2023-04-24T06:19:17;4.25;;;1.30;;
8708;SDS011;4391;48.678;9.280;2023-04-24T06:21:44;4.22;;;1.60;;
8708;SDS011;4391;48.678;9.280;2023-04-24T06:24:13;3.22;;;1.40;;
8708;SDS011;4391;48.678;9.280;2023-04-24T06:26:40;2.97;;;1.20;;
8708;SDS011;4391;48.678;9.280;2023-04-24T06:29:07;4.55;;;1.58;;
8708;SDS011;4391;48.678;9.280;2023-04-24T06:31:35;3.55;;;1.35;;
8708;SDS011;4391;48.678;9.280;2023-04-24T06:34:02;4.00;;;1.23;;
8708;SDS011;4391;48.678;9.280;2023-04-24T06:36:30;5.45;;;1.60;;
8708;SDS011;4391;48.678;9.280;2023-04-24T06:38:59;2.83;;;1.00;;
8708;SDS011;4391;48.678;9.280;2023-04-24T06:41:26;4.10;;;0.80;;
8708;SDS011;4391;48.678;9.280;2023-04-24T06:43:53;4.55;;;1.10;;
8708;SDS011;4391;48.678;9.280;2023-04-24T06:46:20;2.67;;;0.90;;
8708;SDS011;4391;48.678;9.280;2023-04-24T06:48:50;4.07;;;0.90;;
8708;SDS011;4391;48.678;9.280;2023-04-24T06:51:17;4.47;;;1.13;;
8708;SDS011;4391;48.678;9.280;2023-04-24T06:53:44;2.85;;;1.20;;
8708;SDS011;4391;48.678;9.280;2023-04-24T06:56:10;3.00;;;1.02;;
8708;SDS011;4391;48.678;9.280;2023-04-24T06:58:37;4.13;;;0.73;;
8708;SDS011;4391;48.678;9.280;2023-04-24T07:01:04;3.83;;;1.10;;
8708;SDS011;4391;48.678;9.280;2023-04-24T07:03:31;2.50;;;0.90;;
8708;SDS011;4391;48.678;9.280;2023-04-24T07:05:59;2.47;;;0.88;;
8708;SDS011;4391;48.678;9.280;2023-04-24T07:08:26;4.00;;;1.00;;
8708;SDS011;4391;48.678;9.280;2023-04-24T07:10:53;3.08;;;0.90;;
8708;SDS011;4391;48.678;9.280;2023-04-24T07:13:20;3.67;;;0.80;;
8708;SDS011;4391;48.678;9.280;2023-04-24T07:15:48;5.63;;;1.10;;
8708;SDS011;4391;48.678;9.280;2023-04-24T07:18:15;2.25;;;0.80;;
8708;SDS011;4391;48.678;9.280;2023-04-24T07:20:43;3.67;;;0.93;;
8708;SDS011;4391;48.678;9.280;2023-04-24T07:23:11;3.95;;;1.10;;
8708;SDS011;4391;48.678;9.280;2023-04-24T07:25:38;3.92;;;0.95;;
8708;SDS011;4391;48.678;9.280;2023-04-24T07:28:05;5.10;;;1.33;;
8708;SDS011;4391;48.678;9.280;2023-04-24T07:30:32;3.38;;;1.42;;
8708;SDS011;4391;48.678;9.280;2023-04-24T07:32:59;4.88;;;1.30;;
8708;SDS011;4391;48.678;9.280;2023-04-24T07:35:26;3.17;;;1.00;;
8708;SDS011;4391;48.678;9.280;2023-04-24T07:37:53;3.53;;;1.10;;
8708;SDS011;4391;48.678;9.280;2023-04-24T07:40:22;2.90;;;1.10;;
8708;SDS011;4391;48.678;9.280;2023-04-24T07:42:49;3.05;;;0.80;;
8708;SDS011;4391;48.678;9.280;2023-04-24T07:45:15;2.45;;;0.73;;
8708;SDS011;4391;48.678;9.280;2023-04-24T07:47:43;1.63;;;0.60;;
8708;SDS011;4391;48.678;9.280;2023-04-24T07:50:10;1.92;;;0.70;;
8708;SDS011;4391;48.678;9.280;2023-04-24T07:52:38;1.53;;;0.70;;
8708;SDS011;4391;48.678;9.280;2023-04-24T07:55:05;2.08;;;0.90;;
8708;SDS011;4391;48.678;9.280;2023-04-24T07:57:34;2.58;;;0.90;;
8708;SDS011;4391;48.678;9.280;2023-04-24T08:00:02;3.58;;;0.77;;
8708;SDS011;4391;48.678;9.280;2023-04-24T08:02:30;2.97;;;0.80;;
8708;SDS011;4391;48.678;9.280;2023-04-24T08:04:57;3.47;;;1.20;;
8708;SDS011;4391;48.678;9.280;2023-04-24T08:07:24;2.45;;;1.00;;
8708;SDS011;4391;48.678;9.280;2023-04-24T08:09:51;2.97;;;0.98;;
8708;SDS011;4391;48.678;9.280;2023-04-24T08:12:18;3.40;;;1.00;;
8708;SDS011;4391;48.678;9.280;2023-04-24T08:14:46;2.97;;;0.90;;
8708;SDS011;4391;48.678;9.280;2023-04-24T08:17:12;2.57;;;1.00;;
8708;SDS011;4391;48.678;9.280;2023-04-24T08:19:39;2.58;;;0.82;;
8708;SDS011;4391;48.678;9.280;2023-04-24T08:22:12;4.50;;;1.00;;
8708;SDS011;4391;48.678;9.280;2023-04-24T08:24:39;2.35;;;0.80;;
8708;SDS011;4391;48.678;9.280;2023-04-24T08:27:06;2.95;;;0.80;;
8708;SDS011;4391;48.678;9.280;2023-04-24T08:29:33;2.93;;;1.00;;
8708;SDS011;4391;48.678;9.280;2023-04-24T08:32:01;2.40;;;0.95;;
8708;SDS011;4391;48.678;9.280;2023-04-24T08:34:28;3.38;;;0.93;;
8708;SDS011;4391;48.678;9.280;2023-04-24T08:36:55;3.25;;;0.90;;
8708;SDS011;4391;48.678;9.280;2023-04-24T08:39:22;3.33;;;1.08;;
8708;SDS011;4391;48.678;9.280;2023-04-24T08:41:49;2.10;;;0.90;;
8708;SDS011;4391;48.678;9.280;2023-04-24T08:44:18;3.03;;;1.02;;
8708;SDS011;4391;48.678;9.280;2023-04-24T08:46:46;5.68;;;0.93;;
8708;SDS011;4391;48.678;9.280;2023-04-24T08:49:17;3.28;;;0.90;;
8708;SDS011;4391;48.678;9.280;2023-04-24T08:51:45;2.00;;;0.80;;
8708;SDS011;4391;48.678;9.280;2023-04-24T08:54:13;3.93;;;1.17;;
8708;SDS011;4391;48.678;9.280;2023-04-24T08:56:40;2.70;;;0.77;;
8708;SDS011;4391;48.678;9.280;2023-04-24T08:59:09;2.38;;;0.95;;
8708;SDS011;4391;48.678;9.280;2023-04-24T09:01:37;2.78;;;1.10;;
8708;SDS011;4391;48.678;9.280;2023-04-24T09:04:06;2.72;;;0.80;;
8708;SDS011;4391;48.678;9.280;2023-04-24T09:06:36;3.33;;;1.00;;
8708;SDS011;4391;48.678;9.280;2023-04-24T09:09:03;2.78;;;1.23;;
8708;SDS011;4391;48.678;9.280;2023-04-24T09:11:30;3.67;;;1.00;;
8708;SDS011;4391;48.678;9.280;2023-04-24T09:13:57;2.95;;;0.80;;
8708;SDS011;4391;48.678;9.280;2023-04-24T09:16:25;4.70;;;1.10;;
8708;SDS011;4391;48.678;9.280;2023-04-24T09:18:52;2.50;;;1.00;;
8708;SDS011;4391;48.678;9.280;2023-04-24T09:21:20;4.97;;;1.00;;
8708;SDS011;4391;48.678;9.280;2023-04-24T09:23:58;2.35;;;1.00;;
8708;SDS011;4391;48.678;9.280;2023-04-24T09:26:26;4.05;;;1.17;;
8708;SDS011;4391;48.678;9.280;2023-04-24T09:28:56;2.70;;;0.90;;
8708;SDS011;4391;48.678;9.280;2023-04-24T09:31:24;2.93;;;0.80;;
8708;SDS011;4391;48.678;9.280;2023-04-24T09:33:53;5.22;;;1.00;;
8708;SDS011;4391;48.678;9.280;2023-04-24T09:36:26;3.65;;;0.73;;
8708;SDS011;4391;48.678;9.280;2023-04-24T09:38:58;2.63;;;0.95;;
8708;SDS011;4391;48.678;9.280;2023-04-24T09:41:26;2.70;;;0.90;;
8708;SDS011;4391;48.678;9.280;2023-04-24T09:43:54;2.67;;;0.60;;
8708;SDS011;4391;48.678;9.280;2023-04-24T09:46:28;4.80;;;1.05;;
8708;SDS011;4391;48.678;9.280;2023-04-24T09:48:55;3.58;;;1.00;;
8708;SDS011;4391;48.678;9.280;2023-04-24T09:51:32;2.72;;;0.93;;
8708;SDS011;4391;48.678;9.280;2023-04-24T09:54:02;2.10;;;0.85;;
8708;SDS011;4391;48.678;9.280;2023-04-24T09:56:32;3.83;;;0.80;;
8708;SDS011;4391;48.678;9.280;2023-04-24T09:59:05;2.03;;;0.70;;
8708;SDS011;4391;48.678;9.280;2023-04-24T10:01:33;3.08;;;1.00;;
8708;SDS011;4391;48.678;9.280;2023-04-24T10:04:00;2.08;;;0.70;;
8708;SDS011;4391;48.678;9.280;2023-04-24T10:06:31;2.25;;;0.70;;
8708;SDS011;4391;48.678;9.280;2023-04-24T10:08:59;1.50;;;0.67;;
8708;SDS011;4391;48.678;9.280;2023-04-24T10:11:28;1.85;;;0.60;;
8708;SDS011;4391;48.678;9.280;2023-04-24T10:13:56;1.75;;;0.70;;
8708;SDS011;4391;48.678;9.280;2023-04-24T10:16:23;3.78;;;0.65;;
8708;SDS011;4391;48.678;9.280;2023-04-24T10:18:52;1.50;;;0.60;;
8708;SDS011;4391;48.678;9.280;2023-04-24T10:21:19;2.27;;;0.67;;
8708;SDS011;4391;48.678;9.280;2023-04-24T10:23:46;2.80;;;0.70;;
8708;SDS011;4391;48.678;9.280;2023-04-24T10:26:15;1.90;;;0.70;;
8708;SDS011;4391;48.678;9.280;2023-04-24T10:28:46;2.35;;;0.80;;
8708;SDS011;4391;48.678;9.280;2023-04-24T10:31:13;2.67;;;0.70;;
8708;SDS011;4391;48.678;9.280;2023-04-24T10:33:41;2.37;;;0.80;;
8708;SDS011;4391;48.678;9.280;2023-04-24T10:36:09;2.10;;;0.70;;
8708;SDS011;4391;48.678;9.280;2023-04-24T10:38:37;1.15;;;0.45;;
8708;SDS011;4391;48.678;9.280;2023-04-24T10:41:07;1.88;;;0.60;;
8708;SDS011;4391;48.678;9.280;2023-04-24T10:43:40;8.45;;;0.70;;
8708;SDS011;4391;48.678;9.280;2023-04-24T10:46:10;2.73;;;0.77;;
8708;SDS011;4391;48.678;9.280;2023-04-24T10:48:41;2.13;;;0.57;;
8708;SDS011;4391;48.678;9.280;2023-04-24T10:51:11;2.72;;;0.75;;
8708;SDS011;4391;48.678;9.280;2023-04-24T10:53:39;2.17;;;0.55;;
8708;SDS011;4391;48.678;9.280;2023-04-24T10:56:06;1.52;;;0.50;;
8708;SDS011;4391;48.678;9.280;2023-04-24T10:58:38;2.03;;;0.50;;
8708;SDS011;4391;48.678;9.280;2023-04-24T11:01:11;2.30;;;0.73;;
8708;SDS011;4391;48.678;9.280;2023-04-24T11:03:51;3.03;;;0.50;;
8708;SDS011;4391;48.678;9.280;2023-04-24T11:06:27;1.55;;;0.65;;
8708;SDS011;4391;48.678;9.280;2023-04-24T11:08:58;2.83;;;0.80;;
8708;SDS011;4391;48.678;9.280;2023-04-24T11:11:30;4.20;;;0.67;;
8708;SDS011;4391;48.678;9.280;2023-04-24T11:14:09;2.63;;;0.80;;
8708;SDS011;4391;48.678;9.280;2023-04-24T11:16:43;4.20;;;0.70;;
8708;SDS011;4391;48.678;9.280;2023-04-24T11:19:17;1.80;;;0.73;;
8708;SDS011;4391;48.678;9.280;2023-04-24T11:21:48;1.48;;;0.60;;
8708;SDS011;4391;48.678;9.280;2023-04-24T11:24:27;1.77;;;0.70;;
8708;SDS011;4391;48.678;9.280;2023-04-24T11:26:58;2.33;;;1.10;;
8708;SDS011;4391;48.678;9.280;2023-04-24T11:29:38;1.90;;;0.70;;
8708;SDS011;4391;48.678;9.280;2023-04-24T11:32:17;4.07;;;0.80;;
8708;SDS011;4391;48.678;9.280;2023-04-24T11:34:49;2.65;;;0.88;;
8708;SDS011;4391;48.678;9.280;2023-04-24T11:37:16;1.87;;;0.60;;
8708;SDS011;4391;48.678;9.280;2023-04-24T11:39:43;3.67;;;0.82;;
8708;SDS011;4391;48.678;9.280;2023-04-24T11:42:10;2.42;;;0.85;;
8708;SDS011;4391;48.678;9.280;2023-04-24T11:44:40;1.95;;;0.80;;
8708;SDS011;4391;48.678;9.280;2023-04-24T11:47:08;1.77;;;0.50;;
8708;SDS011;4391;48.678;9.280;2023-04-24T11:49:37;1.50;;;0.50;;
8708;SDS011;4391;48.678;9.280;2023-04-24T11:52:04;2.15;;;0.63;;
8708;SDS011;4391;48.678;9.280;2023-04-24T11:54:31;1.58;;;0.60;;
8708;SDS011;4391;48.678;9.280;2023-04-24T11:56:58;2.47;;;0.60;;
8708;SDS011;4391;48.678;9.280;2023-04-24T11:59:25;1.50;;;0.55;;
8708;SDS011;4391;48.678;9.280;2023-04-24T12:01:52;2.03;;;0.53;;
8708;SDS011;4391;48.678;9.280;2023-04-24T12:04:19;3.45;;;0.75;;
8708;SDS011;4391;48.678;9.280;2023-04-24T12:09:39;3.53;;;0.70;;
8708;SDS011;4391;48.678;9.280;2023-04-24T12:12:06;3.10;;;0.60;;
8708;SDS011;4391;48.678;9.280;2023-04-24T12:14:41;2.40;;;0.60;;
8708;SDS011;4391;48.678;9.280;2023-04-24T12:17:13;2.75;;;0.73;;
8708;SDS011;4391;48.678;9.280;2023-04-24T12:19:44;1.60;;;0.60;;
8708;SDS011;4391;48.678;9.280;2023-04-24T12:22:13;3.00;;;0.70;;
8708;SDS011;4391;48.678;9.280;2023-04-24T12:24:56;3.20;;;0.60;;
8708;SDS011;4391;48.678;9.280;2023-04-24T12:27:24;4.13;;;1.07;;
8708;SDS011;4391;48.678;9.280;2023-04-24T12:29:52;3.60;;;0.70;;
8708;SDS011;4391;48.678;9.280;2023-04-24T12:32:19;2.63;;;1.05;;
8708;SDS011;4391;48.678;9.280;2023-04-24T12:34:46;3.05;;;1.00;;
8708;SDS011;4391;48.678;9.280;2023-04-24T12:37:14;3.95;;;1.10;;
8708;SDS011;4391;48.678;9.280;2023-04-24T12:39:44;3.63;;;1.20;;
8708;SDS011;4391;48.678;9.280;2023-04-24T12:42:25;2.00;;;0.80;;
8708;SDS011;4391;48.678;9.280;2023-04-24T12:44:55;3.38;;;0.77;;
8708;SDS011;4391;48.678;9.280;2023-04-24T12:47:24;2.30;;;0.68;;
8708;SDS011;4391;48.678;9.280;2023-04-24T12:49:51;3.95;;;0.95;;
8708;SDS011;4391;48.678;9.280;2023-04-24T12:52:21;1.97;;;0.50;;
8708;SDS011;4391;48.678;9.280;2023-04-24T12:54:49;2.90;;;0.73;;
8708;SDS011;4391;48.678;9.280;2023-04-24T12:57:16;2.30;;;0.70;;
8708;SDS011;4391;48.678;9.280;2023-04-24T12:59:43;2.85;;;0.82;;
8708;SDS011;4391;48.678;9.280;2023-04-24T13:02:10;3.05;;;0.60;;
8708;SDS011;4391;48.678;9.280;2023-04-24T13:04:37;3.17;;;0.90;;
8708;SDS011;4391;48.678;9.280;2023-04-24T13:07:04;3.25;;;0.80;;
8708;SDS011;4391;48.678;9.280;2023-04-24T13:09:34;1.55;;;0.60;;
8708;SDS011;4391;48.678;9.280;2023-04-24T13:12:01;3.70;;;0.70;;
8708;SDS011;4391;48.678;9.280;2023-04-24T13:14:28;2.17;;;0.70;;
8708;SDS011;4391;48.678;9.280;2023-04-24T13:16:55;2.60;;;0.80;;
8708;SDS011;4391;48.678;9.280;2023-04-24T13:19:23;3.80;;;1.27;;
8708;SDS011;4391;48.678;9.280;2023-04-24T13:21:50;2.38;;;0.70;;
8708;SDS011;4391;48.678;9.280;2023-04-24T13:24:17;2.10;;;0.70;;
8708;SDS011;4391;48.678;9.280;2023-04-24T13:26:46;2.35;;;0.90;;
8708;SDS011;4391;48.678;9.280;2023-04-24T13:29:13;2.33;;;0.83;;
8708;SDS011;4391;48.678;9.280;2023-04-24T13:31:40;2.70;;;0.90;;
8708;SDS011;4391;48.678;9.280;2023-04-24T13:34:07;3.92;;;0.90;;
8708;SDS011;4391;48.678;9.280;2023-04-24T13:36:34;2.95;;;1.00;;
8708;SDS011;4391;48.678;9.280;2023-04-24T13:39:01;3.20;;;1.00;;
8708;SDS011;4391;48.678;9.280;2023-04-24T13:41:29;2.00;;;0.83;;
8708;SDS011;4391;48.678;9.280;2023-04-24T13:43:57;2.50;;;0.95;;
8708;SDS011;4391;48.678;9.280;2023-04-24T13:46:24;2.50;;;1.00;;
8708;SDS011;4391;48.678;9.280;2023-04-24T13:48:51;3.15;;;0.90;;
8708;SDS011;4391;48.678;9.280;2023-04-24T13:51:18;3.65;;;1.10;;
8708;SDS011;4391;48.678;9.280;2023-04-24T13:53:45;3.07;;;1.00;;
8708;SDS011;4391;48.678;9.280;2023-04-24T13:56:12;3.97;;;1.10;;
8708;SDS011;4391;48.678;9.280;2023-04-24T13:58:39;2.40;;;0.95;;
8708;SDS011;4391;48.678;9.280;2023-04-24T14:01:07;3.65;;;1.20;;
8708;SDS011;4391;48.678;9.280;2023-04-24T14:03:35;4.32;;;1.20;;
8708;SDS011;4391;48.678;9.280;2023-04-24T14:07:24;2.90;;;1.23;;
8708;SDS011;4391;48.678;9.280;2023-04-24T14:09:51;2.00;;;0.82;;
8708;SDS011;4391;48.678;9.280;2023-04-24T14:12:18;3.40;;;1.40;;
8708;SDS011;4391;48.678;9.280;2023-04-24T14:14:46;3.22;;;1.00;;
8708;SDS011;4391;48.678;9.280;2023-04-24T14:17:13;2.83;;;0.95;;
8708;SDS011;4391;48.678;9.280;2023-04-24T14:19:40;4.57;;;0.90;;
8708;SDS011;4391;48.678;9.280;2023-04-24T14:22:07;3.63;;;1.00;;
8708;SDS011;4391;48.678;9.280;2023-04-24T14:24:35;4.28;;;1.42;;
8708;SDS011;4391;48.678;9.280;2023-04-24T14:27:02;4.15;;;1.20;;
8708;SDS011;4391;48.678;9.280;2023-04-24T14:29:29;3.10;;;1.30;;
8708;SDS011;4391;48.678;9.280;2023-04-24T14:31:56;6.17;;;1.20;;
8708;SDS011;4391;48.678;9.280;2023-04-24T14:34:23;2.67;;;0.90;;
8708;SDS011;4391;48.678;9.280;2023-04-24T14:36:49;4.35;;;1.30;;
8708;SDS011;4391;48.678;9.280;2023-04-24T14:39:16;5.32;;;1.10;;
8708;SDS011;4391;48.678;9.280;2023-04-24T14:41:45;2.47;;;1.08;;
8708;SDS011;4391;48.678;9.280;2023-04-24T14:44:15;3.37;;;1.20;;
8708;SDS011;4391;48.678;9.280;2023-04-24T14:46:41;4.03;;;1.20;;
8708;SDS011;4391;48.678;9.280;2023-04-24T14:49:08;4.15;;;1.35;;
8708;SDS011;4391;48.678;9.280;2023-04-24T14:51:37;3.97;;;1.25;;
8708;SDS011;4391;48.678;9.280;2023-04-24T14:54:05;3.33;;;1.33;;
8708;SDS011;4391;48.678;9.280;2023-04-24T14:56:32;3.77;;;1.30;;
8708;SDS011;4391;48.678;9.280;2023-04-24T14:59:00;3.13;;;1.10;;
8708;SDS011;4391;48.678;9.280;2023-04-24T15:01:29;4.50;;;1.33;;
8708;SDS011;4391;48.678;9.280;2023-04-24T15:03:56;3.38;;;1.20;;
8708;SDS011;4391;48.678;9.280;2023-04-24T15:06:23;4.82;;;1.58;;
8708;SDS011;4391;48.678;9.280;2023-04-24T15:08:50;3.70;;;1.20;;
8708;SDS011;4391;48.678;9.280;2023-04-24T15:11:19;5.32;;;1.27;;
8708;SDS011;4391;48.678;9.280;2023-04-24T15:13:46;2.63;;;1.10;;
8708;SDS011;4391;48.678;9.280;2023-04-24T15:16:15;2.90;;;1.08;;
8708;SDS011;4391;48.678;9.280;2023-04-24T15:18:42;2.72;;;1.13;;
8708;SDS011;4391;48.678;9.280;2023-04-24T15:21:08;2.87;;;0.90;;
8708;SDS011;4391;48.678;9.280;2023-04-24T15:23:37;4.97;;;1.10;;